createdAt,value
2019-02-02T00:02:22.981Z,2.83
2019-02-02T00:04:53.130Z,2.90
2019-02-02T00:07:23.119Z,2.89
2019-02-02T00:09:56.124Z,2.89
2019-02-02T00:12:25.958Z,2.97
2019-02-02T00:14:55.744Z,2.91
2019-02-02T00:17:25.452Z,2.91
2019-02-02T00:19:55.872Z,3.08
2019-02-02T00:22:25.517Z,3.03
2019-02-02T00:24:56.516Z,3.04
2019-02-02T00:27:26.174Z,3.04
2019-02-02T00:29:57.089Z,3.14
2019-02-02T00:32:26.939Z,2.95
2019-02-02T00:34:56.642Z,3.08
2019-02-02T00:37:27.006Z,3.08
2019-02-02T00:39:56.984Z,3.11
2019-02-02T00:42:27.145Z,3.11
2019-02-02T00:44:56.906Z,3.09
2019-02-02T00:47:27.027Z,3.09
2019-02-02T00:49:57.011Z,3.05
2019-02-02T00:52:27.297Z,3.17
2019-02-02T00:54:56.998Z,3.17
2019-02-02T00:57:27.098Z,3.29
2019-02-02T00:59:57.003Z,3.34
2019-02-02T01:02:26.785Z,3.30
2019-02-02T01:04:56.613Z,3.30
2019-02-02T01:07:26.937Z,3.35
2019-02-02T01:10:00.338Z,3.35
2019-02-02T01:12:30.064Z,3.35
2019-02-02T01:15:01.667Z,3.36
2019-02-02T01:17:33.055Z,3.26
2019-02-02T01:20:02.806Z,3.37
2019-02-02T01:22:32.549Z,3.39
2019-02-02T01:25:02.273Z,3.39
2019-02-02T01:27:32.904Z,3.54
2019-02-02T01:30:02.762Z,3.59
2019-02-02T01:32:32.552Z,3.64
2019-02-02T01:35:02.431Z,3.66
2019-02-02T01:37:32.160Z,3.66
2019-02-02T01:40:02.096Z,3.72
2019-02-02T01:42:31.719Z,3.72
2019-02-02T01:45:03.191Z,3.72
2019-02-02T01:47:33.027Z,3.56
2019-02-02T01:50:02.656Z,3.56
2019-02-02T01:52:32.356Z,3.67
2019-02-02T01:55:04.118Z,3.74
2019-02-02T01:57:33.761Z,3.74
2019-02-02T02:00:05.080Z,3.68
2019-02-02T02:02:34.955Z,3.76
2019-02-02T02:05:04.863Z,3.81
2019-02-02T02:07:34.733Z,3.81
2019-02-02T02:10:07.107Z,3.92
2019-02-02T02:12:37.143Z,3.84
2019-02-02T02:15:08.330Z,3.82
2019-02-02T02:17:38.171Z,3.97
2019-02-02T02:20:08.652Z,4.05
2019-02-02T02:22:41.009Z,3.99
2019-02-02T02:25:14.580Z,3.99
2019-02-02T02:27:44.349Z,4.11
2019-02-02T02:30:16.614Z,4.11
2019-02-02T02:32:47.783Z,4.18
2019-02-02T02:35:17.702Z,4.18
2019-02-02T02:37:50.468Z,4.09
2019-02-02T02:40:22.143Z,4.09
2019-02-02T02:42:51.957Z,4.09
2019-02-02T02:45:21.775Z,4.30
2019-02-02T02:47:54.753Z,4.33
2019-02-02T02:50:24.896Z,4.33
2019-02-02T02:52:54.878Z,4.48
2019-02-02T02:55:27.716Z,4.48
2019-02-02T02:57:57.455Z,4.47
2019-02-02T03:00:28.009Z,4.54
2019-02-02T03:02:57.840Z,4.47
2019-02-02T03:05:27.569Z,4.47
2019-02-02T03:07:57.313Z,4.48
2019-02-02T03:10:27.007Z,4.44
2019-02-02T03:12:56.716Z,4.56
2019-02-02T03:15:26.359Z,4.56
2019-02-02T03:17:56.103Z,4.54
2019-02-02T03:20:26.201Z,4.54
2019-02-02T03:22:55.854Z,4.49
2019-02-02T03:25:33.260Z,4.51
2019-02-02T03:28:00.183Z,4.51
2019-02-02T03:30:30.149Z,4.51
2019-02-02T03:32:59.730Z,4.35
2019-02-02T03:35:29.323Z,4.49
2019-02-02T03:37:59.187Z,4.49
2019-02-02T03:40:29.014Z,4.31
2019-02-02T03:42:59.987Z,4.28
2019-02-02T03:45:29.528Z,4.22
2019-02-02T03:47:59.249Z,4.22
2019-02-02T03:50:29.502Z,4.13
2019-02-02T03:52:59.563Z,4.19
2019-02-02T03:55:29.320Z,4.17
2019-02-02T03:57:59.148Z,4.11
2019-02-02T04:00:28.719Z,4.11
2019-02-02T04:03:02.436Z,4.08
2019-02-02T04:05:32.378Z,4.08
2019-02-02T04:08:02.062Z,4.13
2019-02-02T04:10:31.916Z,4.09
2019-02-02T04:13:01.819Z,4.14
2019-02-02T04:15:31.708Z,4.08
2019-02-02T04:18:02.110Z,4.08
2019-02-02T04:20:31.905Z,4.11
2019-02-02T04:23:04.571Z,4.06
2019-02-02T04:25:34.325Z,4.06
2019-02-02T04:28:04.039Z,4.11
2019-02-02T04:30:34.283Z,4.05
2019-02-02T04:33:07.700Z,4.01
2019-02-02T04:35:37.376Z,4.14
2019-02-02T04:38:07.310Z,4.21
2019-02-02T04:40:37.083Z,4.21
2019-02-02T04:43:06.689Z,4.14
2019-02-02T04:45:38.479Z,4.20
2019-02-02T04:48:08.078Z,4.20
2019-02-02T04:50:37.913Z,4.20
2019-02-02T04:53:08.129Z,4.23
2019-02-02T04:55:38.449Z,4.27
2019-02-02T04:58:08.429Z,4.13
2019-02-02T05:00:38.194Z,4.14
2019-02-02T05:03:08.197Z,4.09
2019-02-02T05:05:38.148Z,4.09
2019-02-02T05:08:11.040Z,4.06
2019-02-02T05:10:40.766Z,3.99
2019-02-02T05:13:10.528Z,3.97
2019-02-02T05:15:40.539Z,4.04
2019-02-02T05:18:10.397Z,4.04
2019-02-02T05:20:40.835Z,4.04
2019-02-02T05:23:10.499Z,4.00
2019-02-02T05:25:40.257Z,4.00
2019-02-02T05:28:10.440Z,3.83
2019-02-02T05:30:40.066Z,3.83
2019-02-02T05:33:09.950Z,3.83
2019-02-02T05:35:41.886Z,3.87
2019-02-02T05:38:11.700Z,3.70
2019-02-02T05:40:41.864Z,3.70
2019-02-02T05:43:11.758Z,3.68
2019-02-02T05:45:41.687Z,3.62
2019-02-02T05:48:11.880Z,3.65
2019-02-02T05:50:43.801Z,3.56
2019-02-02T05:53:14.247Z,3.48
2019-02-02T05:55:44.371Z,3.33
2019-02-02T05:58:14.149Z,3.33
2019-02-02T06:00:49.727Z,3.23
2019-02-02T06:03:19.394Z,3.15
2019-02-02T06:05:49.056Z,3.15
2019-02-02T06:08:18.915Z,2.99
2019-02-02T06:10:48.477Z,2.88
2019-02-02T06:13:18.325Z,2.86
2019-02-02T06:15:48.325Z,2.94
2019-02-02T06:18:18.277Z,2.71
2019-02-02T06:20:48.190Z,2.69
2019-02-02T06:23:18.254Z,2.69
2019-02-02T06:25:48.094Z,2.69
2019-02-02T06:28:17.703Z,2.60
2019-02-02T06:30:47.249Z,2.60
2019-02-02T06:33:17.588Z,2.48
2019-02-02T06:35:47.219Z,2.51
2019-02-02T06:38:17.398Z,2.51
2019-02-02T06:40:47.067Z,2.64
2019-02-02T06:43:16.905Z,2.66
2019-02-02T06:45:47.153Z,2.76
2019-02-02T06:48:18.723Z,2.45
2019-02-02T06:50:54.291Z,2.59
2019-02-02T06:53:23.996Z,2.59
2019-02-02T06:55:53.539Z,2.68
2019-02-02T06:58:23.280Z,2.70
2019-02-02T07:00:52.839Z,2.66
2019-02-02T07:03:22.329Z,2.69
2019-02-02T07:05:51.809Z,2.70
2019-02-02T07:08:21.589Z,2.70
2019-02-02T07:10:51.265Z,2.67
2019-02-02T07:13:21.097Z,2.53
2019-02-02T07:15:50.561Z,2.53
2019-02-02T07:18:20.415Z,2.58
2019-02-02T07:20:50.585Z,2.79
2019-02-02T07:23:20.274Z,2.72
2019-02-02T07:25:50.038Z,2.60
2019-02-02T07:28:20.099Z,2.64
2019-02-02T07:30:50.905Z,2.53
2019-02-02T07:33:20.940Z,2.53
2019-02-02T07:35:54.050Z,2.79
2019-02-02T07:38:23.229Z,2.71
2019-02-02T07:40:52.767Z,2.60
2019-02-02T07:43:22.350Z,2.60
2019-02-02T07:45:51.974Z,2.81
2019-02-02T07:48:21.559Z,2.81
2019-02-02T07:50:51.038Z,2.81
2019-02-02T07:53:20.859Z,2.87
2019-02-02T07:55:50.904Z,2.81
2019-02-02T07:58:20.500Z,2.81
2019-02-02T08:00:50.165Z,2.80
2019-02-02T08:03:19.992Z,2.92
2019-02-02T08:05:51.655Z,2.89
2019-02-02T08:08:21.304Z,2.89
2019-02-02T08:10:50.929Z,2.93
2019-02-02T08:13:20.581Z,2.91
2019-02-02T08:15:50.043Z,2.93
2019-02-02T08:18:19.560Z,3.09
2019-02-02T08:20:52.335Z,2.92
2019-02-02T08:23:22.154Z,2.92
2019-02-02T08:25:51.891Z,3.09
2019-02-02T08:28:21.949Z,3.11
2019-02-02T08:30:52.827Z,2.99
2019-02-02T08:33:22.980Z,2.99
2019-02-02T08:35:56.064Z,3.15
2019-02-02T08:38:25.788Z,3.15
2019-02-02T08:40:55.251Z,3.23
2019-02-02T08:43:24.762Z,3.21
2019-02-02T08:45:54.332Z,3.08
2019-02-02T08:48:24.352Z,3.22
2019-02-02T08:50:54.048Z,3.25
2019-02-02T08:53:23.839Z,3.21
2019-02-02T08:55:53.645Z,3.21
2019-02-02T08:58:23.373Z,3.14
2019-02-02T09:01:03.816Z,3.30
2019-02-02T09:03:24.528Z,3.48
2019-02-02T09:05:54.889Z,3.41
2019-02-02T09:08:24.613Z,3.41
2019-02-02T09:10:55.065Z,3.51
2019-02-02T09:13:24.985Z,3.53
2019-02-02T09:15:55.294Z,3.53
2019-02-02T09:18:24.955Z,3.60
2019-02-02T09:20:56.970Z,3.72
2019-02-02T09:23:26.740Z,3.60
2019-02-02T09:25:57.427Z,3.70
2019-02-02T09:28:27.004Z,3.80
2019-02-02T09:30:56.884Z,3.80
2019-02-02T09:33:26.362Z,3.86
2019-02-02T09:35:57.848Z,3.86
2019-02-02T09:38:27.614Z,3.84
2019-02-02T09:40:57.563Z,3.83
2019-02-02T09:43:27.239Z,3.79
2019-02-02T09:45:56.916Z,4.01
2019-02-02T09:48:26.869Z,4.01
2019-02-02T09:50:58.377Z,4.03
2019-02-02T09:53:28.394Z,4.03
2019-02-02T09:55:58.370Z,4.18
2019-02-02T09:58:28.166Z,4.18
2019-02-02T10:00:58.081Z,4.17
2019-02-02T10:03:27.760Z,4.17
2019-02-02T10:05:57.371Z,4.30
2019-02-02T10:08:28.248Z,4.24
2019-02-02T10:10:58.028Z,4.43
2019-02-02T10:13:27.888Z,4.49
2019-02-02T10:16:00.950Z,4.53
2019-02-02T10:18:31.019Z,4.29
2019-02-02T10:21:03.990Z,4.44
2019-02-02T10:23:32.292Z,4.44
2019-02-02T10:26:01.947Z,4.37
2019-02-02T10:28:31.482Z,4.37
2019-02-02T10:31:01.861Z,4.54
2019-02-02T10:33:31.606Z,4.38
2019-02-02T10:36:01.152Z,4.22
2019-02-02T10:38:33.188Z,4.34
2019-02-02T10:41:03.904Z,4.34
2019-02-02T10:43:33.438Z,4.44
2019-02-02T10:46:02.960Z,4.31
2019-02-02T10:48:32.714Z,4.44
2019-02-02T10:51:02.300Z,4.44
2019-02-02T10:53:32.146Z,4.45
2019-02-02T10:56:02.032Z,4.55
2019-02-02T10:58:31.982Z,4.55
2019-02-02T11:01:01.494Z,4.57
2019-02-02T11:03:31.286Z,4.67
2019-02-02T11:06:01.656Z,4.67
2019-02-02T11:08:31.388Z,4.70
2019-02-02T11:11:01.201Z,4.41
2019-02-02T11:13:31.099Z,4.69
2019-02-02T11:16:01.123Z,4.69
2019-02-02T11:18:31.917Z,4.58
2019-02-02T11:21:01.552Z,4.58
2019-02-02T11:23:32.084Z,4.52
2019-02-02T11:26:01.896Z,4.59
2019-02-02T11:28:32.506Z,4.66
2019-02-02T11:31:02.132Z,4.66
2019-02-02T11:33:31.773Z,4.66
2019-02-02T11:36:01.737Z,4.34
2019-02-02T11:38:31.272Z,4.34
2019-02-02T11:41:01.066Z,4.49
2019-02-02T11:43:30.925Z,4.15
2019-02-02T11:46:01.003Z,4.15
2019-02-02T11:48:31.069Z,4.27
2019-02-02T11:51:02.347Z,4.30
2019-02-02T11:53:31.890Z,4.38
2019-02-02T11:56:01.647Z,4.38
2019-02-02T11:58:31.336Z,4.36
2019-02-02T12:01:01.455Z,4.46
2019-02-02T12:03:31.764Z,4.53
2019-02-02T12:06:01.385Z,4.52
2019-02-02T12:08:37.906Z,4.47
2019-02-02T12:11:07.502Z,4.50
2019-02-02T12:13:37.747Z,4.50
2019-02-02T12:16:08.472Z,4.50
2019-02-02T12:18:38.198Z,4.48
2019-02-02T12:21:08.448Z,4.11
2019-02-02T12:23:38.045Z,4.37
2019-02-02T12:26:12.169Z,4.45
2019-02-02T12:28:42.207Z,4.27
2019-02-02T12:31:11.933Z,4.05
2019-02-02T12:33:42.015Z,4.09
2019-02-02T12:36:11.584Z,4.12
2019-02-02T12:38:41.429Z,4.12
2019-02-02T12:41:10.993Z,3.80
2019-02-02T12:43:40.539Z,3.80
2019-02-02T12:46:11.319Z,3.95
2019-02-02T12:48:44.542Z,3.88
2019-02-02T12:51:14.099Z,3.88
2019-02-02T12:53:43.901Z,3.92
2019-02-02T12:56:15.315Z,3.97
2019-02-02T12:58:45.360Z,3.80
2019-02-02T13:01:15.775Z,3.56
2019-02-02T13:03:46.243Z,3.62
2019-02-02T13:06:16.279Z,3.49
2019-02-02T13:08:45.828Z,3.49
2019-02-02T13:11:15.452Z,3.63
2019-02-02T13:13:45.215Z,3.63
2019-02-02T13:16:15.247Z,3.71
2019-02-02T13:18:48.003Z,3.71
2019-02-02T13:21:17.532Z,3.33
2019-02-02T13:23:47.350Z,3.51
2019-02-02T13:26:17.015Z,3.44
2019-02-02T13:28:46.531Z,3.56
2019-02-02T13:31:20.842Z,3.56
2019-02-02T13:33:47.548Z,3.32
2019-02-02T13:36:20.615Z,3.62
2019-02-02T13:38:50.200Z,3.56
2019-02-02T13:41:19.831Z,3.22
2019-02-02T13:43:49.330Z,3.22
2019-02-02T13:46:19.247Z,3.39
2019-02-02T13:48:51.125Z,3.55
2019-02-02T13:51:21.061Z,3.45
2019-02-02T13:53:50.691Z,3.45
2019-02-02T13:56:20.289Z,3.28
2019-02-02T13:58:49.934Z,3.11
2019-02-02T14:01:19.483Z,2.95
2019-02-02T14:03:49.487Z,2.95
2019-02-02T14:06:19.248Z,2.99
2019-02-02T14:08:50.951Z,3.30
2019-02-02T14:11:20.251Z,3.30
2019-02-02T14:13:50.164Z,3.05
2019-02-02T14:16:19.665Z,3.27
2019-02-02T14:18:49.670Z,3.16
2019-02-02T14:21:19.714Z,3.02
2019-02-02T14:23:50.374Z,3.02
2019-02-02T14:26:19.980Z,2.96
2019-02-02T14:28:52.338Z,2.96
2019-02-02T14:31:22.106Z,2.73
2019-02-02T14:33:51.985Z,2.84
2019-02-02T14:36:21.718Z,2.86
2019-02-02T14:38:51.349Z,2.90
2019-02-02T14:41:21.217Z,2.90
2019-02-02T14:43:51.142Z,2.47
2019-02-02T14:46:20.985Z,2.47
2019-02-02T14:48:52.375Z,2.45
2019-02-02T14:51:21.996Z,2.42
2019-02-02T14:53:54.004Z,2.64
2019-02-02T14:56:25.308Z,2.25
2019-02-02T14:58:55.134Z,2.31
2019-02-02T15:01:24.691Z,2.24
2019-02-02T15:03:54.277Z,2.24
2019-02-02T15:06:23.832Z,2.33
2019-02-02T15:08:53.368Z,2.09
2019-02-02T15:11:23.185Z,2.09
2019-02-02T15:13:54.459Z,2.07
2019-02-02T15:16:24.189Z,1.94
2019-02-02T15:18:54.032Z,1.91
2019-02-02T15:21:24.071Z,1.87
2019-02-02T15:23:54.101Z,1.87
2019-02-02T15:26:24.811Z,1.75
2019-02-02T15:28:54.956Z,1.54
2019-02-02T15:31:25.130Z,1.61
2019-02-02T15:33:56.491Z,1.76
2019-02-02T15:36:27.065Z,1.76
2019-02-02T15:38:59.076Z,1.94
2019-02-02T15:41:28.715Z,1.60
2019-02-02T15:44:00.321Z,1.55
2019-02-02T15:46:29.571Z,1.55
2019-02-02T15:49:00.263Z,1.49
2019-02-02T15:51:40.021Z,1.45
2019-02-02T15:54:01.090Z,1.54
2019-02-02T15:56:31.216Z,1.55
2019-02-02T15:59:01.184Z,1.54
2019-02-02T16:01:31.273Z,1.54
2019-02-02T16:04:01.197Z,1.25
2019-02-02T16:06:30.811Z,1.25
2019-02-02T16:09:00.558Z,1.38
2019-02-02T16:11:30.069Z,1.23
2019-02-02T16:14:00.467Z,1.13
2019-02-02T16:16:30.026Z,1.31
2019-02-02T16:18:59.575Z,1.31
2019-02-02T16:21:29.375Z,1.22
2019-02-02T16:24:00.742Z,1.23
2019-02-02T16:26:30.371Z,1.26
2019-02-02T16:29:00.116Z,1.32
2019-02-02T16:34:04.129Z,1.95
2019-02-02T16:36:34.406Z,1.95
2019-02-02T16:39:06.072Z,1.56
2019-02-02T16:41:35.871Z,1.26
2019-02-02T16:44:08.015Z,1.16
2019-02-02T16:46:37.562Z,1.17
2019-02-02T16:49:07.046Z,1.03
2019-02-02T16:51:36.508Z,0.99
2019-02-02T16:54:06.095Z,0.99
2019-02-02T16:56:38.402Z,1.04
2019-02-02T16:59:09.161Z,0.90
2019-02-02T17:01:39.144Z,0.86
2019-02-02T17:04:16.017Z,0.86
2019-02-02T17:06:40.138Z,0.86
2019-02-02T17:09:14.137Z,0.91
2019-02-02T17:11:44.510Z,0.87
2019-02-02T17:14:19.020Z,0.87
2019-02-02T17:16:48.467Z,0.79
2019-02-02T17:19:18.126Z,0.79
2019-02-02T17:21:48.971Z,1.03
2019-02-02T17:24:18.968Z,1.03
2019-02-02T17:26:48.942Z,0.95
2019-02-02T17:29:18.720Z,1.08
2019-02-02T17:31:49.065Z,1.08
2019-02-02T17:34:26.855Z,0.95
2019-02-02T17:36:49.819Z,0.95
2019-02-02T17:39:19.230Z,0.94
2019-02-02T17:41:49.017Z,1.07
2019-02-02T17:44:18.516Z,1.09
2019-02-02T17:46:48.355Z,1.09
2019-02-02T17:49:23.366Z,1.06
2019-02-02T17:51:59.456Z,1.06
2019-02-02T17:54:29.286Z,1.00
2019-02-02T17:56:59.095Z,0.95
2019-02-02T17:59:30.780Z,0.86
2019-02-02T18:02:00.336Z,0.86
2019-02-02T18:04:39.081Z,0.81
2019-02-02T18:07:01.615Z,0.80
2019-02-02T18:09:31.157Z,0.80
2019-02-02T18:12:01.301Z,0.86
2019-02-02T18:14:30.939Z,0.72
2019-02-02T18:17:02.073Z,0.72
2019-02-02T18:19:31.892Z,0.74
2019-02-02T18:22:03.140Z,0.74
2019-02-02T18:24:32.727Z,0.80
2019-02-02T18:27:03.383Z,0.81
2019-02-02T18:29:33.448Z,0.72
2019-02-02T18:32:13.081Z,0.78
2019-02-02T18:34:50.964Z,0.88
2019-02-02T18:37:12.758Z,0.88
2019-02-02T18:39:42.698Z,0.64
2019-02-02T18:42:12.230Z,0.75
2019-02-02T18:44:43.875Z,0.75
2019-02-02T18:47:14.194Z,0.75
2019-02-02T18:49:47.783Z,0.75
2019-02-02T18:52:18.394Z,0.75
2019-02-02T18:54:48.674Z,0.77
2019-02-02T18:57:19.149Z,0.71
2019-02-02T18:59:49.649Z,0.56
2019-02-02T19:02:19.346Z,0.65
2019-02-02T19:04:49.436Z,0.60
2019-02-02T19:07:19.139Z,0.57
2019-02-02T19:09:48.755Z,0.50
2019-02-02T19:12:18.420Z,0.59
2019-02-02T19:14:48.187Z,0.53
2019-02-02T19:17:17.761Z,0.55
2019-02-02T19:19:47.240Z,0.55
2019-02-02T19:22:17.158Z,0.51
2019-02-02T19:24:49.167Z,0.43
2019-02-02T19:27:19.457Z,0.54
2019-02-02T19:29:49.528Z,0.54
2019-02-02T19:32:19.554Z,0.53
2019-02-02T19:34:49.362Z,0.46
2019-02-02T19:37:21.119Z,0.46
2019-02-02T19:39:50.521Z,0.51
2019-02-02T19:42:20.384Z,0.52
2019-02-02T19:44:51.486Z,0.59
2019-02-02T19:47:24.330Z,0.54
2019-02-02T19:49:54.155Z,0.54
2019-02-02T19:52:24.083Z,0.44
2019-02-02T19:54:54.803Z,0.44
2019-02-02T19:57:26.270Z,0.50
2019-02-02T19:59:56.264Z,0.46
2019-02-02T20:02:26.154Z,0.39
2019-02-02T20:04:57.094Z,0.39
2019-02-02T20:07:29.128Z,0.50
2019-02-02T20:10:04.523Z,0.50
2019-02-02T20:12:40.768Z,0.40
2019-02-02T20:15:11.635Z,0.43
2019-02-02T20:17:45.774Z,0.43
2019-02-02T20:20:20.163Z,0.49
2019-02-02T20:22:51.287Z,0.43
2019-02-02T20:25:21.399Z,0.30
2019-02-02T20:27:51.621Z,0.37
2019-02-02T20:30:45.464Z,0.37
2019-02-02T20:33:16.275Z,0.44
2019-02-02T20:35:51.723Z,0.32
2019-02-02T20:38:28.137Z,0.55
2019-02-02T20:40:58.673Z,0.44
2019-02-02T20:43:28.470Z,0.33
2019-02-02T20:46:00.256Z,0.26
2019-02-02T20:48:33.424Z,0.29
2019-02-02T20:51:05.144Z,0.30
2019-02-02T20:53:35.397Z,0.24
2019-02-02T20:56:05.044Z,0.24
2019-02-02T20:58:34.609Z,0.27
2019-02-02T21:01:05.996Z,0.30
2019-02-02T21:03:36.000Z,0.38
2019-02-02T21:06:05.993Z,0.38
2019-02-02T21:08:36.136Z,0.13
2019-02-02T21:11:06.369Z,0.32
2019-02-02T21:13:36.612Z,0.32
2019-02-02T21:16:06.859Z,0.32
2019-02-02T21:18:36.586Z,0.32
2019-02-02T21:21:06.913Z,0.18
2019-02-02T21:23:37.142Z,0.18
2019-02-02T21:26:07.572Z,0.27
2019-02-02T21:28:37.535Z,0.27
2019-02-02T21:31:08.151Z,0.18
2019-02-02T21:33:38.135Z,0.17
2019-02-02T21:36:08.135Z,0.17
2019-02-02T21:38:38.150Z,0.19
2019-02-02T21:41:09.754Z,0.21
2019-02-02T21:43:39.216Z,0.08
2019-02-02T21:46:08.988Z,0.04
2019-02-02T21:48:39.387Z,0.04
2019-02-02T21:51:08.944Z,0.24
2019-02-02T21:53:39.003Z,0.24
2019-02-02T21:56:10.739Z,0.13
2019-02-02T21:58:41.147Z,0.13
2019-02-02T22:01:23.888Z,0.16
2019-02-02T22:03:46.667Z,0.06
2019-02-02T22:06:16.541Z,0.06
2019-02-02T22:08:49.646Z,0.15
2019-02-02T22:11:19.619Z,0.10
2019-02-02T22:13:52.759Z,0.16
2019-02-02T22:16:23.165Z,0.16
2019-02-02T22:18:54.155Z,0.17
2019-02-02T22:21:24.003Z,0.13
2019-02-02T22:23:54.900Z,0.13
2019-02-02T22:26:25.658Z,0.26
2019-02-02T22:28:58.360Z,0.26
2019-02-02T22:31:29.000Z,0.25
2019-02-02T22:33:59.063Z,0.11
2019-02-02T22:36:29.095Z,0.19
2019-02-02T22:38:58.907Z,0.13
2019-02-02T22:41:32.622Z,0.13
2019-02-02T22:44:02.447Z,0.19
2019-02-02T22:46:32.559Z,0.24
2019-02-02T22:49:03.442Z,0.24
2019-02-02T22:51:36.487Z,0.34
2019-02-02T22:54:06.642Z,0.27
2019-02-02T22:56:36.718Z,0.37
2019-02-02T22:59:08.145Z,0.37
2019-02-02T23:01:44.814Z,0.28
2019-02-02T23:05:04.904Z,0.43
2019-02-02T23:07:56.531Z,0.43
2019-02-02T23:10:57.392Z,0.30
2019-02-02T23:13:53.045Z,0.30
2019-02-02T23:16:24.739Z,0.24
2019-02-02T23:18:55.146Z,0.20
2019-02-02T23:21:25.437Z,0.34
2019-02-02T23:23:55.868Z,0.27
2019-02-02T23:26:26.384Z,0.07
2019-02-02T23:28:56.036Z,0.27
2019-02-02T23:31:26.147Z,0.27
2019-02-02T23:33:59.709Z,0.23
2019-02-02T23:36:29.472Z,0.30
2019-02-02T23:38:59.289Z,0.32
2019-02-02T23:41:29.183Z,0.35
2019-02-02T23:44:02.456Z,0.40
2019-02-02T23:46:32.294Z,0.40
2019-02-02T23:49:02.263Z,0.40
2019-02-02T23:51:31.939Z,0.39
2019-02-02T23:54:02.509Z,0.34
2019-02-02T23:56:32.354Z,0.18
2019-02-02T23:59:03.197Z,0.18
